Terminal Aerodrome Forecast
Issued by NWS Northern Indiana

Home | Current Version | Previous Version | Graphics & Text | Print | Product List | Glossary On
Versions: 1 2 3 4 5 6 7 8 9 10 11 12 13 14 15 16 17 18 19 20
000
FTUS43 KIWX 130800 AAB
TAFFWA
TAF AMD
KFWA 130859Z 1309/1406 30010KT P6SM BKN009
      TEMPO 1309/1310 6SM -RA BR SCT009 BKN040
     FM131100 32006KT 6SM BR OVC015
     FM131500 34011KT P6SM BKN035
     FM140000 35003KT P6SM FEW035=

USA.gov is the U.S. government's official web portal to all federal, state and local government web resources and services.